Time;durP1;ratioP1;P1;durP2;ratioP2;P2;SDS_P1;SDS_P2;PMS_P1;PMS_P2;Temp;Humidity;BMP_temperature;BMP_pressure;BME280_temperature;BME280_humidity;BME280_pressure;Samples;Min_cycle;Max_cycle;Signal;HPM_P1;HPM_P2
2023/03/15 00:01:07;;;;;;;6.73;2.30;;;;;;;;;;5072567;28;20426;-55
2023/03/15 00:03:38;;;;;;;7.67;3.17;;;;;;;;;;5072611;28;20477;-56
2023/03/15 00:06:06;;;;;;;8.50;2.50;;;;;;;;;;5072467;28;20513;-56
2023/03/15 00:08:32;;;;;;;11.80;2.80;;;;;;;;;;5072323;28;21022;-56
2023/03/15 00:10:58;;;;;;;4.80;2.50;;;;;;;;;;5072367;28;20444;-56
2023/03/15 00:13:24;;;;;;;11.27;2.73;;;;;;;;;;5073027;28;20438;-57
2023/03/15 00:15:52;;;;;;;5.60;2.57;;;;;;;;;;5071517;28;20454;-56
2023/03/15 00:18:19;;;;;;;7.20;2.77;;;;;;;;;;5072214;28;20434;-56
2023/03/15 00:20:46;;;;;;;6.13;2.43;;;;;;;;;;5072444;28;20523;-56
2023/03/15 00:23:13;;;;;;;7.93;2.60;;;;;;;;;;5072084;28;20480;-56
2023/03/15 00:25:39;;;;;;;6.77;2.60;;;;;;;;;;5072431;28;20453;-56
2023/03/15 00:28:06;;;;;;;7.60;2.40;;;;;;;;;;5072025;28;20527;-56
2023/03/15 00:30:32;;;;;;;6.67;2.40;;;;;;;;;;5072195;28;20446;-57
2023/03/15 00:32:58;;;;;;;5.97;2.33;;;;;;;;;;5071862;28;20442;-56
2023/03/15 00:35:24;;;;;;;5.43;2.60;;;;;;;;;;5072172;28;20203;-56
2023/03/15 00:37:53;;;;;;;7.90;2.30;;;;;;;;;;5071964;28;20437;-56
2023/03/15 00:40:20;;;;;;;7.77;2.80;;;;;;;;;;5071842;28;20196;-56
2023/03/15 00:42:49;;;;;;;7.90;2.83;;;;;;;;;;5071780;28;20561;-57
2023/03/15 00:45:15;;;;;;;7.23;2.70;;;;;;;;;;5071558;28;20591;-56
2023/03/15 00:47:41;;;;;;;8.27;2.43;;;;;;;;;;5071654;28;20906;-56
2023/03/15 00:50:07;;;;;;;10.77;3.23;;;;;;;;;;5071730;28;20422;-56
2023/03/15 00:52:34;;;;;;;7.57;2.93;;;;;;;;;;5071562;28;20658;-57
2023/03/15 00:55:00;;;;;;;5.53;2.20;;;;;;;;;;5071576;28;20896;-56
2023/03/15 00:57:28;;;;;;;3.93;2.30;;;;;;;;;;5071664;28;20445;-56
2023/03/15 00:59:54;;;;;;;4.77;2.30;;;;;;;;;;5071709;28;20457;-56
2023/03/15 01:02:21;;;;;;;10.67;2.30;;;;;;;;;;5071417;28;20452;-56
2023/03/15 01:04:47;;;;;;;7.07;2.60;;;;;;;;;;5071340;28;20471;-56
2023/03/15 01:07:13;;;;;;;8.00;2.40;;;;;;;;;;5071322;28;20801;-57
2023/03/15 01:09:39;;;;;;;10.90;3.23;;;;;;;;;;5071555;28;21032;-56
2023/03/15 01:12:05;;;;;;;9.13;2.67;;;;;;;;;;5071180;28;20989;-57
2023/03/15 01:14:35;;;;;;;7.73;2.40;;;;;;;;;;5071278;28;20920;-57
2023/03/15 01:17:01;;;;;;;8.93;2.53;;;;;;;;;;5071143;28;20452;-57
2023/03/15 01:19:27;;;;;;;6.70;2.40;;;;;;;;;;5071302;28;20430;-56
2023/03/15 01:21:53;;;;;;;8.77;2.80;;;;;;;;;;5071420;28;20203;-57
2023/03/15 01:24:19;;;;;;;8.27;2.77;;;;;;;;;;5071094;28;20231;-57
2023/03/15 01:26:45;;;;;;;3.77;2.17;;;;;;;;;;5070870;28;20298;-56
2023/03/15 01:29:12;;;;;;;7.37;2.77;;;;;;;;;;5070978;28;20243;-56
2023/03/15 01:31:39;;;;;;;8.77;2.73;;;;;;;;;;5071190;28;20735;-56
2023/03/15 01:34:07;;;;;;;9.67;2.47;;;;;;;;;;5070887;28;20441;-56
2023/03/15 01:36:33;;;;;;;7.27;2.37;;;;;;;;;;5070886;28;20935;-56
2023/03/15 01:38:59;;;;;;;5.60;1.90;;;;;;;;;;5070892;28;20501;-56
2023/03/15 01:41:26;;;;;;;7.80;2.63;;;;;;;;;;5070885;28;20601;-56
2023/03/15 01:43:52;;;;;;;8.33;2.40;;;;;;;;;;5070650;28;20232;-56
2023/03/15 01:46:23;;;;;;;4.73;1.87;;;;;;;;;;5069991;28;20460;-57
2023/03/15 01:48:53;;;;;;;6.27;2.60;;;;;;;;;;5069756;28;20470;-56
2023/03/15 01:51:21;;;;;;;4.77;1.97;;;;;;;;;;5069870;28;20448;-56
2023/03/15 01:53:50;;;;;;;8.53;3.07;;;;;;;;;;5069794;28;20955;-56
2023/03/15 01:56:16;;;;;;;5.37;2.53;;;;;;;;;;5070144;28;20468;-56
2023/03/15 01:58:42;;;;;;;7.63;2.53;;;;;;;;;;5069933;28;20436;-57
2023/03/15 02:01:09;;;;;;;5.83;2.23;;;;;;;;;;5069998;28;20438;-57
2023/03/15 02:03:37;;;;;;;10.77;2.40;;;;;;;;;;5070200;28;20488;-57
2023/03/15 02:06:06;;;;;;;6.53;2.20;;;;;;;;;;5069661;28;20467;-56
2023/03/15 02:08:35;;;;;;;4.50;2.43;;;;;;;;;;5069845;28;20481;-56
2023/03/15 02:11:03;;;;;;;8.40;2.50;;;;;;;;;;5069661;28;20672;-56
2023/03/15 02:13:30;;;;;;;6.90;2.63;;;;;;;;;;5069846;28;20517;-56
2023/03/15 02:15:56;;;;;;;6.57;2.40;;;;;;;;;;5069788;28;20434;-56
2023/03/15 02:18:22;;;;;;;11.73;2.40;;;;;;;;;;5069828;28;20442;-56
2023/03/15 02:20:51;;;;;;;7.13;2.00;;;;;;;;;;5069716;28;20438;-56
2023/03/15 02:23:20;;;;;;;10.07;2.70;;;;;;;;;;5069443;28;20536;-56
2023/03/15 02:25:49;;;;;;;8.63;3.00;;;;;;;;;;5069485;28;20987;-56
2023/03/15 02:28:18;;;;;;;8.40;2.70;;;;;;;;;;5069456;28;20572;-56
2023/03/15 02:30:44;;;;;;;7.93;2.30;;;;;;;;;;5069531;28;20469;-57
2023/03/15 02:33:14;;;;;;;7.27;2.67;;;;;;;;;;5069493;28;20438;-56
2023/03/15 02:35:40;;;;;;;5.87;2.77;;;;;;;;;;5069639;28;20486;-57
2023/03/15 02:38:06;;;;;;;9.40;2.63;;;;;;;;;;5069710;28;20460;-56
2023/03/15 02:40:32;;;;;;;4.57;2.20;;;;;;;;;;5073088;28;20204;-57
2023/03/15 02:43:00;;;;;;;7.40;2.37;;;;;;;;;;5072652;28;20215;-56
2023/03/15 02:45:28;;;;;;;6.53;2.73;;;;;;;;;;5038152;28;1019257;-56
2023/03/15 02:47:54;;;;;;;8.13;2.73;;;;;;;;;;5074149;28;20268;-57
2023/03/15 02:50:20;;;;;;;5.13;2.30;;;;;;;;;;5073878;28;20441;-56
2023/03/15 02:52:46;;;;;;;9.87;2.87;;;;;;;;;;5073934;28;20456;-56
2023/03/15 02:55:12;;;;;;;6.63;2.37;;;;;;;;;;5073909;28;20195;-56
2023/03/15 02:57:38;;;;;;;3.83;2.13;;;;;;;;;;5074336;28;20201;-56
2023/03/15 03:00:12;;;;;;;3.90;2.07;;;;;;;;;;5073788;28;20434;-56
2023/03/15 03:02:40;;;;;;;8.53;2.70;;;;;;;;;;5074019;28;20437;-56
2023/03/15 03:05:06;;;;;;;7.57;2.60;;;;;;;;;;5073577;28;20829;-57
2023/03/15 03:07:32;;;;;;;5.60;2.17;;;;;;;;;;5073586;28;20495;-57
2023/03/15 03:09:58;;;;;;;6.87;2.53;;;;;;;;;;5073532;28;20850;-57
2023/03/15 03:12:24;;;;;;;6.13;2.80;;;;;;;;;;5073734;28;20441;-57
2023/03/15 03:14:50;;;;;;;9.57;2.87;;;;;;;;;;5073740;28;20191;-56
2023/03/15 03:17:16;;;;;;;5.70;3.00;;;;;;;;;;5073349;28;20592;-56
2023/03/15 03:19:43;;;;;;;6.77;3.47;;;;;;;;;;5073376;28;20798;-56
2023/03/15 03:22:12;;;;;;;6.23;2.80;;;;;;;;;;5073584;28;20494;-56
2023/03/15 03:24:38;;;;;;;7.10;3.10;;;;;;;;;;5073580;28;20434;-56
2023/03/15 03:27:04;;;;;;;7.40;3.20;;;;;;;;;;5073379;28;20809;-56
2023/03/15 03:29:30;;;;;;;6.70;3.63;;;;;;;;;;5073188;28;21072;-56
2023/03/15 03:31:56;;;;;;;5.80;3.23;;;;;;;;;;5073320;28;20944;-56
2023/03/15 03:34:22;;;;;;;7.50;3.20;;;;;;;;;;5073168;28;20476;-59
2023/03/15 03:36:49;;;;;;;6.07;3.80;;;;;;;;;;5073280;28;20238;-56
2023/03/15 03:39:15;;;;;;;7.20;3.87;;;;;;;;;;5073049;28;20454;-56
2023/03/15 03:41:41;;;;;;;6.93;4.10;;;;;;;;;;5073275;28;20449;-57
2023/03/15 03:44:07;;;;;;;5.87;4.00;;;;;;;;;;5073112;28;20469;-56
2023/03/15 03:46:35;;;;;;;7.13;3.97;;;;;;;;;;5073013;28;20445;-56
2023/03/15 03:49:01;;;;;;;6.07;3.87;;;;;;;;;;5072729;28;20811;-55
2023/03/15 03:51:27;;;;;;;4.30;3.80;;;;;;;;;;5072801;28;20446;-56
2023/03/15 03:53:54;;;;;;;6.33;3.60;;;;;;;;;;5073018;28;20223;-56
2023/03/15 03:56:20;;;;;;;5.37;3.43;;;;;;;;;;5072769;28;20279;-56
2023/03/15 03:58:46;;;;;;;4.83;3.87;;;;;;;;;;5072773;28;20426;-56
2023/03/15 04:01:12;;;;;;;6.53;3.90;;;;;;;;;;5072567;28;20989;-56
2023/03/15 04:03:38;;;;;;;7.33;3.77;;;;;;;;;;5072780;28;20203;-55
2023/03/15 04:06:04;;;;;;;7.63;4.07;;;;;;;;;;5072471;28;20253;-55
2023/03/15 04:08:30;;;;;;;6.33;3.80;;;;;;;;;;5072391;28;20701;-56
2023/03/15 04:10:57;;;;;;;6.27;4.30;;;;;;;;;;5072544;28;20476;-55
2023/03/15 04:13:24;;;;;;;7.07;4.27;;;;;;;;;;5072549;28;20574;-56
2023/03/15 04:15:51;;;;;;;6.40;3.63;;;;;;;;;;5072438;28;20536;-56
2023/03/15 04:18:17;;;;;;;6.10;4.03;;;;;;;;;;5072251;28;20516;-56
2023/03/15 04:20:45;;;;;;;7.77;4.30;;;;;;;;;;5072323;28;20446;-56
2023/03/15 04:23:11;;;;;;;6.13;4.40;;;;;;;;;;5072113;28;20523;-56
2023/03/15 04:25:37;;;;;;;6.17;3.83;;;;;;;;;;5072292;28;20939;-56
2023/03/15 04:28:09;;;;;;;7.80;4.07;;;;;;;;;;5071941;28;20509;-56
2023/03/15 04:30:35;;;;;;;6.77;3.90;;;;;;;;;;5072196;28;20212;-56
2023/03/15 04:33:02;;;;;;;6.17;3.90;;;;;;;;;;5071985;28;20489;-56
2023/03/15 04:35:29;;;;;;;5.00;3.60;;;;;;;;;;5071955;28;20438;-56
2023/03/15 04:37:55;;;;;;;10.13;4.37;;;;;;;;;;5072050;28;20847;-56
2023/03/15 04:40:22;;;;;;;6.93;3.90;;;;;;;;;;5071834;28;20529;-56
2023/03/15 04:42:48;;;;;;;6.13;3.83;;;;;;;;;;5071877;28;20485;-56
2023/03/15 04:45:16;;;;;;;7.17;3.93;;;;;;;;;;5071629;28;20568;-56
2023/03/15 04:47:42;;;;;;;5.63;3.53;;;;;;;;;;5071668;28;20446;-56
2023/03/15 04:50:08;;;;;;;5.63;3.83;;;;;;;;;;5071830;28;20491;-56
2023/03/15 04:52:34;;;;;;;4.37;3.67;;;;;;;;;;5071676;28;20192;-56
2023/03/15 04:55:00;;;;;;;4.87;4.03;;;;;;;;;;5071591;28;20439;-56
2023/03/15 04:57:26;;;;;;;5.97;3.97;;;;;;;;;;5071559;28;20495;-56
2023/03/15 04:59:52;;;;;;;3.40;3.10;;;;;;;;;;5071815;28;20551;-56
2023/03/15 05:02:20;;;;;;;5.97;4.07;;;;;;;;;;5070837;28;20203;-56
2023/03/15 05:04:46;;;;;;;6.03;3.50;;;;;;;;;;5071343;28;20195;-56
2023/03/15 05:07:12;;;;;;;5.10;3.73;;;;;;;;;;5071237;28;20449;-59
2023/03/15 05:09:38;;;;;;;4.93;3.70;;;;;;;;;;5071439;28;20238;-55
2023/03/15 05:12:04;;;;;;;5.57;3.57;;;;;;;;;;5071283;28;20206;-55
2023/03/15 05:14:30;;;;;;;5.30;3.80;;;;;;;;;;5071304;28;20229;-55
2023/03/15 05:16:58;;;;;;;5.37;3.77;;;;;;;;;;5071221;28;20462;-55
2023/03/15 05:19:26;;;;;;;4.70;3.93;;;;;;;;;;5071361;28;20515;-55
2023/03/15 05:21:53;;;;;;;8.70;4.13;;;;;;;;;;5071171;28;20438;-55
2023/03/15 05:24:19;;;;;;;6.70;3.73;;;;;;;;;;5071037;28;20499;-55
2023/03/15 05:26:45;;;;;;;4.67;4.00;;;;;;;;;;5071169;28;20490;-55
2023/03/15 05:29:12;;;;;;;5.00;4.20;;;;;;;;;;5070884;28;21029;-56
2023/03/15 05:31:37;;;;;;;5.20;4.33;;;;;;;;;;5071316;28;20688;-56
2023/03/15 05:34:04;;;;;;;8.07;4.50;;;;;;;;;;5070804;28;20516;-56
2023/03/15 05:36:31;;;;;;;7.27;4.20;;;;;;;;;;5070929;28;20232;-56
2023/03/15 05:38:57;;;;;;;8.63;4.53;;;;;;;;;;5071022;28;20874;-56
2023/03/15 05:41:23;;;;;;;7.97;4.30;;;;;;;;;;5053232;28;20834;-55
2023/03/15 05:43:49;;;;;;;7.67;3.83;;;;;;;;;;5070775;28;20473;-55
2023/03/15 05:46:15;;;;;;;6.10;3.90;;;;;;;;;;5070882;28;20204;-56
2023/03/15 05:48:41;;;;;;;5.70;4.23;;;;;;;;;;5070759;28;20488;-57
2023/03/15 05:51:07;;;;;;;4.30;3.90;;;;;;;;;;5070904;28;20234;-56
2023/03/15 05:53:34;;;;;;;8.67;4.77;;;;;;;;;;5070911;28;20441;-56
2023/03/15 05:56:00;;;;;;;9.17;4.80;;;;;;;;;;5070823;28;20437;-56
2023/03/15 05:58:26;;;;;;;7.00;4.50;;;;;;;;;;5070746;28;20527;-56
2023/03/15 06:00:53;;;;;;;5.77;4.03;;;;;;;;;;5070999;28;20931;-56
2023/03/15 06:03:18;;;;;;;7.50;4.73;;;;;;;;;;5070536;28;20195;-56
2023/03/15 06:05:44;;;;;;;6.67;4.67;;;;;;;;;;5070704;28;20432;-56
2023/03/15 06:08:10;;;;;;;6.33;4.00;;;;;;;;;;5070755;28;20223;-55
2023/03/15 06:10:38;;;;;;;6.00;3.97;;;;;;;;;;5070911;28;20204;-56
2023/03/15 06:13:04;;;;;;;5.43;3.93;;;;;;;;;;5070889;28;20215;-56
2023/03/15 06:15:30;;;;;;;8.27;5.03;;;;;;;;;;5074732;28;20438;-56
2023/03/15 06:17:56;;;;;;;8.47;5.43;;;;;;;;;;5073885;28;20536;-56
2023/03/15 06:20:22;;;;;;;6.83;4.70;;;;;;;;;;5074439;28;20892;-55
2023/03/15 06:22:48;;;;;;;5.20;4.70;;;;;;;;;;5074572;28;20196;-56
2023/03/15 06:25:14;;;;;;;6.17;4.23;;;;;;;;;;5074515;28;20611;-56
2023/03/15 06:27:42;;;;;;;7.80;4.47;;;;;;;;;;5074650;28;20256;-56
2023/03/15 06:30:08;;;;;;;5.10;4.10;;;;;;;;;;5074410;28;20477;-56
2023/03/15 06:32:34;;;;;;;4.67;4.00;;;;;;;;;;5074233;28;20448;-56
2023/03/15 06:35:00;;;;;;;7.37;4.37;;;;;;;;;;5074218;28;20426;-56
2023/03/15 06:37:26;;;;;;;5.57;4.03;;;;;;;;;;5074259;28;20542;-55
2023/03/15 06:39:53;;;;;;;7.53;4.43;;;;;;;;;;5074199;28;20513;-55
2023/03/15 06:42:19;;;;;;;6.60;4.30;;;;;;;;;;5073841;28;20879;-56
2023/03/15 06:44:46;;;;;;;5.97;3.87;;;;;;;;;;5073872;28;20478;-56
2023/03/15 06:47:12;;;;;;;3.43;2.97;;;;;;;;;;5073967;28;20450;-55
2023/03/15 06:49:39;;;;;;;6.80;4.23;;;;;;;;;;5073590;28;21029;-56
2023/03/15 06:52:05;;;;;;;5.93;3.37;;;;;;;;;;5073844;28;20426;-56
2023/03/15 06:54:31;;;;;;;4.33;3.40;;;;;;;;;;5073970;28;20508;-57
2023/03/15 06:56:57;;;;;;;4.20;3.37;;;;;;;;;;5073863;28;20429;-57
2023/03/15 06:59:23;;;;;;;6.33;3.50;;;;;;;;;;5073880;28;20195;-57
2023/03/15 07:01:51;;;;;;;5.97;3.13;;;;;;;;;;5073719;28;20206;-56
2023/03/15 07:04:17;;;;;;;5.97;2.70;;;;;;;;;;5073580;28;20495;-57
2023/03/15 07:06:43;;;;;;;5.73;3.40;;;;;;;;;;5073773;28;20943;-55
2023/03/15 07:09:10;;;;;;;4.03;2.87;;;;;;;;;;5073838;28;20476;-56
2023/03/15 07:11:36;;;;;;;4.60;2.80;;;;;;;;;;5073677;28;20616;-55
2023/03/15 07:14:02;;;;;;;4.47;2.90;;;;;;;;;;5073469;28;20456;-56
2023/03/15 07:16:28;;;;;;;4.00;3.10;;;;;;;;;;5073448;28;20256;-55
2023/03/15 07:18:58;;;;;;;3.93;2.47;;;;;;;;;;5073356;28;20565;-56
2023/03/15 07:21:24;;;;;;;4.00;2.50;;;;;;;;;;5073573;28;20239;-57
2023/03/15 07:23:50;;;;;;;2.90;2.30;;;;;;;;;;5072866;28;20453;-56
2023/03/15 07:26:16;;;;;;;3.40;2.23;;;;;;;;;;5073319;28;20225;-57
2023/03/15 07:28:43;;;;;;;4.67;2.50;;;;;;;;;;5073384;28;20227;-57
2023/03/15 07:31:10;;;;;;;6.53;2.73;;;;;;;;;;5073356;28;20199;-57
2023/03/15 07:33:36;;;;;;;4.00;2.10;;;;;;;;;;5073367;28;20422;-56
2023/03/15 07:36:04;;;;;;;4.07;2.00;;;;;;;;;;5073000;28;20802;-56
2023/03/15 07:38:31;;;;;;;3.80;2.30;;;;;;;;;;5073387;28;20441;-57
2023/03/15 07:40:57;;;;;;;3.13;1.97;;;;;;;;;;5073210;28;20449;-56
2023/03/15 07:43:24;;;;;;;3.73;2.00;;;;;;;;;;5072900;28;20454;-56
2023/03/15 07:45:50;;;;;;;5.60;2.10;;;;;;;;;;5073037;28;20529;-57
2023/03/15 07:48:16;;;;;;;4.33;2.00;;;;;;;;;;5072477;28;20843;-57
2023/03/15 07:50:42;;;;;;;4.23;2.40;;;;;;;;;;5073044;28;20441;-57
2023/03/15 07:53:09;;;;;;;5.30;2.17;;;;;;;;;;5072995;28;20441;-57
2023/03/15 07:55:36;;;;;;;4.27;2.07;;;;;;;;;;5072964;28;20211;-58
2023/03/15 07:58:02;;;;;;;3.87;1.73;;;;;;;;;;5072725;28;20537;-57
2023/03/15 08:00:28;;;;;;;4.47;2.10;;;;;;;;;;5072615;28;20188;-57
2023/03/15 08:02:54;;;;;;;3.53;1.93;;;;;;;;;;5072715;28;20489;-57
2023/03/15 08:05:20;;;;;;;4.97;2.00;;;;;;;;;;5072599;28;20469;-57
2023/03/15 08:07:47;;;;;;;3.83;1.97;;;;;;;;;;5072854;28;20219;-57
2023/03/15 08:10:15;;;;;;;7.10;2.07;;;;;;;;;;5072402;28;20481;-57
2023/03/15 08:12:41;;;;;;;4.00;1.93;;;;;;;;;;5072724;28;20785;-56
2023/03/15 08:15:08;;;;;;;4.40;2.17;;;;;;;;;;5072547;28;20513;-56
2023/03/15 08:17:34;;;;;;;4.20;1.90;;;;;;;;;;5072276;28;20265;-56
2023/03/15 08:20:01;;;;;;;6.73;2.10;;;;;;;;;;5072375;28;20430;-57
2023/03/15 08:22:29;;;;;;;3.47;2.10;;;;;;;;;;5072391;28;20569;-57
2023/03/15 08:24:56;;;;;;;3.80;1.90;;;;;;;;;;5072463;28;20665;-56
2023/03/15 08:27:23;;;;;;;4.07;1.97;;;;;;;;;;5072341;28;20199;-56
2023/03/15 08:29:50;;;;;;;6.53;2.37;;;;;;;;;;5072072;28;20227;-56
2023/03/15 08:32:17;;;;;;;5.77;2.10;;;;;;;;;;5071761;28;20251;-56
2023/03/15 08:34:42;;;;;;;4.20;1.87;;;;;;;;;;5072117;28;20210;-56
2023/03/15 08:37:10;;;;;;;8.23;2.00;;;;;;;;;;5071376;28;20204;-57
2023/03/15 08:39:36;;;;;;;6.47;2.20;;;;;;;;;;5071936;28;20196;-56
2023/03/15 08:42:02;;;;;;;5.40;2.10;;;;;;;;;;5071858;28;20633;-55
2023/03/15 08:44:30;;;;;;;6.50;1.93;;;;;;;;;;5071433;28;20242;-57
2023/03/15 08:46:56;;;;;;;5.93;1.80;;;;;;;;;;5071675;28;20210;-57
2023/03/15 08:49:22;;;;;;;5.90;2.23;;;;;;;;;;5071441;28;20230;-56
2023/03/15 08:51:48;;;;;;;7.30;2.00;;;;;;;;;;5071726;28;20199;-56
2023/03/15 08:54:14;;;;;;;5.80;1.97;;;;;;;;;;5071392;28;20199;-55
2023/03/15 08:56:40;;;;;;;5.07;2.00;;;;;;;;;;5071847;28;20199;-56
2023/03/15 08:59:06;;;;;;;4.23;1.87;;;;;;;;;;5071741;28;20531;-55
2023/03/15 09:01:33;;;;;;;6.30;2.03;;;;;;;;;;5071407;28;20518;-56
2023/03/15 09:04:00;;;;;;;7.13;2.00;;;;;;;;;;5071359;28;20242;-56
2023/03/15 09:06:26;;;;;;;4.93;2.10;;;;;;;;;;5071469;28;20223;-57
2023/03/15 09:08:55;;;;;;;7.13;2.70;;;;;;;;;;5071478;28;20230;-56
2023/03/15 09:11:21;;;;;;;4.53;1.80;;;;;;;;;;5071394;28;20188;-57
2023/03/15 09:13:47;;;;;;;4.67;2.00;;;;;;;;;;5071235;28;20686;-57
2023/03/15 09:16:13;;;;;;;5.80;1.97;;;;;;;;;;5071192;28;20242;-55
2023/03/15 09:18:42;;;;;;;4.43;1.67;;;;;;;;;;5071228;28;20200;-55
2023/03/15 09:21:08;;;;;;;3.60;1.87;;;;;;;;;;5071328;28;20670;-57
2023/03/15 09:23:34;;;;;;;5.67;1.93;;;;;;;;;;5071119;28;20200;-56
2023/03/15 09:26:00;;;;;;;3.97;1.53;;;;;;;;;;5071274;28;20208;-56
2023/03/15 09:28:26;;;;;;;6.47;2.33;;;;;;;;;;5071000;28;20219;-57
2023/03/15 09:30:53;;;;;;;5.57;2.13;;;;;;;;;;5071275;28;20712;-56
2023/03/15 09:33:21;;;;;;;3.90;1.90;;;;;;;;;;5070923;28;20221;-56
2023/03/15 09:35:49;;;;;;;3.60;1.47;;;;;;;;;;5071351;28;20199;-56
2023/03/15 09:38:15;;;;;;;3.30;1.57;;;;;;;;;;5070910;28;20226;-55
2023/03/15 09:40:45;;;;;;;4.73;1.50;;;;;;;;;;5071199;28;20724;-56
2023/03/15 09:43:22;;;;;;;4.80;1.70;;;;;;;;;;5070836;28;20303;-56
2023/03/15 09:45:55;;;;;;;5.80;2.03;;;;;;;;;;5071075;28;20278;-57
2023/03/15 09:48:24;;;;;;;5.67;1.50;;;;;;;;;;5070693;28;20230;-56
2023/03/15 09:50:54;;;;;;;4.40;1.57;;;;;;;;;;5071010;28;20219;-56
2023/03/15 09:53:23;;;;;;;4.43;1.77;;;;;;;;;;5070856;28;20283;-56
2023/03/15 09:55:50;;;;;;;7.00;1.80;;;;;;;;;;5070909;28;20532;-56
2023/03/15 09:58:18;;;;;;;5.97;2.10;;;;;;;;;;5070768;28;20269;-57
2023/03/15 10:00:45;;;;;;;3.37;1.60;;;;;;;;;;5070919;28;20206;-56
2023/03/15 10:03:15;;;;;;;5.10;1.70;;;;;;;;;;5070994;28;20219;-57
2023/03/15 10:05:43;;;;;;;3.80;1.87;;;;;;;;;;5071132;28;20199;-56
2023/03/15 10:08:11;;;;;;;4.47;1.70;;;;;;;;;;5070938;28;20298;-57
2023/03/15 10:10:39;;;;;;;4.23;1.90;;;;;;;;;;5070875;28;20635;-56
2023/03/15 10:13:09;;;;;;;4.13;1.93;;;;;;;;;;5070832;28;20688;-55
2023/03/15 10:15:39;;;;;;;4.53;2.00;;;;;;;;;;5070748;28;20199;-57
2023/03/15 10:18:14;;;;;;;4.87;1.67;;;;;;;;;;5070827;28;20195;-56
2023/03/15 10:20:41;;;;;;;6.37;1.80;;;;;;;;;;5070932;28;20238;-56
2023/03/15 10:23:10;;;;;;;6.13;1.90;;;;;;;;;;5070768;28;20662;-56
2023/03/15 10:25:38;;;;;;;5.70;1.77;;;;;;;;;;5071000;28;20249;-56
2023/03/15 10:28:08;;;;;;;4.43;1.77;;;;;;;;;;5070443;28;20203;-56
2023/03/15 10:30:35;;;;;;;4.90;1.63;;;;;;;;;;5070707;28;20211;-56
2023/03/15 10:33:02;;;;;;;6.77;2.37;;;;;;;;;;5070279;28;20302;-56
2023/03/15 10:35:28;;;;;;;3.93;2.03;;;;;;;;;;5052323;28;20196;-56
2023/03/15 10:37:54;;;;;;;4.23;1.70;;;;;;;;;;5070678;28;20198;-56
2023/03/15 10:40:35;;;;;;;8.97;1.80;;;;;;;;;;5070316;28;20283;-55
2023/03/15 10:43:11;;;;;;;3.53;1.60;;;;;;;;;;5069947;28;20453;-56
2023/03/15 10:45:38;;;;;;;5.63;1.57;;;;;;;;;;5070348;28;20227;-56
2023/03/15 10:48:04;;;;;;;4.93;1.50;;;;;;;;;;5070352;28;20233;-55
2023/03/15 10:50:31;;;;;;;5.23;1.73;;;;;;;;;;5070120;28;20231;-56
2023/03/15 10:52:58;;;;;;;3.87;1.60;;;;;;;;;;5070248;28;20650;-59
2023/03/15 10:55:31;;;;;;;3.87;1.60;;;;;;;;;;5070307;28;20203;-56
2023/03/15 10:57:58;;;;;;;4.73;1.60;;;;;;;;;;5070100;28;20568;-57
2023/03/15 11:00:30;;;;;;;1.40;1.20;;;;;;;;;;5072649;28;20188;-56
2023/03/15 11:03:04;;;;;;;3.23;1.60;;;;;;;;;;5073845;28;20212;-56
2023/03/15 11:05:31;;;;;;;2.03;1.50;;;;;;;;;;5073763;28;20817;-57
2023/03/15 11:07:57;;;;;;;3.13;1.50;;;;;;;;;;5055844;28;20227;-55
2023/03/15 11:10:24;;;;;;;4.53;1.70;;;;;;;;;;5073727;28;20754;-55
2023/03/15 11:12:50;;;;;;;3.47;1.57;;;;;;;;;;5073967;28;20249;-56
2023/03/15 11:15:18;;;;;;;4.30;1.70;;;;;;;;;;5073551;28;20203;-56
2023/03/15 11:17:47;;;;;;;3.40;1.50;;;;;;;;;;5073574;28;20658;-56
2023/03/15 11:20:22;;;;;;;2.90;1.37;;;;;;;;;;5073535;28;20222;-56
2023/03/15 11:22:48;;;;;;;3.20;1.50;;;;;;;;;;5073741;28;20191;-56
2023/03/15 11:25:14;;;;;;;4.47;1.53;;;;;;;;;;5073294;28;20199;-56
2023/03/15 11:27:42;;;;;;;3.07;1.63;;;;;;;;;;5073585;28;20247;-56
2023/03/15 11:30:12;;;;;;;5.03;1.80;;;;;;;;;;5073476;28;20230;-56
2023/03/15 11:32:39;;;;;;;4.13;1.60;;;;;;;;;;5073386;28;20539;-56
2023/03/15 11:35:08;;;;;;;1.43;1.30;;;;;;;;;;5073202;28;20576;-57
2023/03/15 11:37:36;;;;;;;2.50;1.30;;;;;;;;;;5072986;28;20204;-57
2023/03/15 11:40:04;;;;;;;1.60;1.07;;;;;;;;;;5073287;28;20236;-57
2023/03/15 11:42:33;;;;;;;2.13;1.27;;;;;;;;;;5072799;28;20238;-57
2023/03/15 11:45:01;;;;;;;1.10;1.00;;;;;;;;;;5072865;28;20231;-57
2023/03/15 11:47:34;;;;;;;2.03;1.00;;;;;;;;;;5072450;28;20204;-57
2023/03/15 11:50:00;;;;;;;2.03;1.00;;;;;;;;;;5073094;28;20474;-58
2023/03/15 11:52:28;;;;;;;0.77;0.77;;;;;;;;;;5072822;28;20195;-58
2023/03/15 11:54:56;;;;;;;1.80;1.00;;;;;;;;;;5073232;28;20443;-56
2023/03/15 11:57:40;;;;;;;0.90;0.90;;;;;;;;;;5072963;28;20438;-57
2023/03/15 12:00:20;;;;;;;1.07;1.03;;;;;;;;;;5073101;28;20440;-56
2023/03/15 12:02:51;;;;;;;1.03;0.93;;;;;;;;;;5072663;28;20876;-57
2023/03/15 12:05:36;;;;;;;0.80;0.80;;;;;;;;;;5072553;28;20438;-56
2023/03/15 12:08:17;;;;;;;0.87;0.80;;;;;;;;;;5072583;28;20610;-56
2023/03/15 12:10:45;;;;;;;0.90;0.90;;;;;;;;;;5071507;28;20858;-58
2023/03/15 12:13:17;;;;;;;2.87;1.30;;;;;;;;;;5072421;28;20438;-56
2023/03/15 12:15:45;;;;;;;1.27;1.13;;;;;;;;;;5072492;28;20911;-57
2023/03/15 12:18:14;;;;;;;3.73;1.53;;;;;;;;;;5072438;28;20448;-57
2023/03/15 12:20:41;;;;;;;4.17;1.60;;;;;;;;;;5072553;28;20517;-57
2023/03/15 12:23:14;;;;;;;2.60;1.50;;;;;;;;;;5072242;28;20801;-55
2023/03/15 12:25:46;;;;;;;3.87;1.57;;;;;;;;;;5072634;28;20450;-54
2023/03/15 12:28:19;;;;;;;3.27;1.60;;;;;;;;;;5072299;28;20433;-55
2023/03/15 12:30:50;;;;;;;5.23;1.50;;;;;;;;;;5072185;28;20440;-56
2023/03/15 12:33:18;;;;;;;2.13;1.40;;;;;;;;;;5071770;28;20446;-61
2023/03/15 12:35:45;;;;;;;3.43;1.53;;;;;;;;;;5072052;28;20793;-57
2023/03/15 12:38:14;;;;;;;2.47;1.20;;;;;;;;;;5072085;28;20475;-55
2023/03/15 12:40:52;;;;;;;1.80;1.40;;;;;;;;;;5071956;28;20465;-55
2023/03/15 12:43:35;;;;;;;1.90;1.43;;;;;;;;;;5071748;28;20457;-55
2023/03/15 12:46:01;;;;;;;3.67;1.40;;;;;;;;;;5032160;28;20440;-56
2023/03/15 12:48:28;;;;;;;3.90;1.17;;;;;;;;;;5031792;28;20448;-55
2023/03/15 12:50:58;;;;;;;1.37;1.00;;;;;;;;;;5032160;28;20606;-56
2023/03/15 12:53:28;;;;;;;3.07;1.30;;;;;;;;;;5031933;28;20197;-55
2023/03/15 12:55:56;;;;;;;2.13;1.20;;;;;;;;;;5032102;28;20300;-57
2023/03/15 12:58:26;;;;;;;2.43;1.43;;;;;;;;;;5031832;28;20205;-56
2023/03/15 13:00:53;;;;;;;2.47;1.10;;;;;;;;;;5031603;28;20648;-56
2023/03/15 13:03:20;;;;;;;2.57;1.10;;;;;;;;;;5031634;28;20201;-56
2023/03/15 13:05:51;;;;;;;1.53;0.97;;;;;;;;;;5031655;28;20239;-57
2023/03/15 13:08:24;;;;;;;1.77;1.07;;;;;;;;;;5031462;28;20673;-56
2023/03/15 13:10:59;;;;;;;2.77;1.40;;;;;;;;;;5031793;28;20203;-56
2023/03/15 13:13:33;;;;;;;1.93;1.13;;;;;;;;;;5031552;28;20754;-56
2023/03/15 13:16:14;;;;;;;2.27;1.30;;;;;;;;;;5031639;28;20211;-56
2023/03/15 13:18:42;;;;;;;2.23;1.10;;;;;;;;;;5031640;28;20224;-56
2023/03/15 13:21:12;;;;;;;1.27;1.07;;;;;;;;;;5031616;28;20579;-57
2023/03/15 13:23:39;;;;;;;1.53;1.00;;;;;;;;;;5031095;28;20204;-57
2023/03/15 13:26:18;;;;;;;1.87;1.20;;;;;;;;;;5031344;28;20613;-55
2023/03/15 13:28:47;;;;;;;2.13;1.30;;;;;;;;;;5031349;28;20225;-55
2023/03/15 13:31:17;;;;;;;1.17;1.00;;;;;;;;;;5031217;28;20200;-55
2023/03/15 13:33:46;;;;;;;3.30;1.20;;;;;;;;;;5031215;28;20205;-56
2023/03/15 13:36:14;;;;;;;3.13;1.20;;;;;;;;;;5031064;28;20205;-55
2023/03/15 13:38:40;;;;;;;1.07;0.90;;;;;;;;;;5031231;28;20196;-55
2023/03/15 13:41:15;;;;;;;1.80;0.87;;;;;;;;;;5031369;28;20204;-55
2023/03/15 13:43:43;;;;;;;2.23;1.20;;;;;;;;;;5036891;28;20271;-55
2023/03/15 13:46:09;;;;;;;1.53;1.13;;;;;;;;;;5071242;28;20200;-55
2023/03/15 13:48:36;;;;;;;1.60;1.13;;;;;;;;;;5070649;28;20204;-56
2023/03/15 13:51:03;;;;;;;1.57;1.17;;;;;;;;;;5070824;28;20650;-56
2023/03/15 13:53:30;;;;;;;1.33;0.93;;;;;;;;;;5071033;28;20195;-56
2023/03/15 13:55:57;;;;;;;1.40;1.03;;;;;;;;;;5070892;28;20707;-55
2023/03/15 13:58:23;;;;;;;1.20;1.10;;;;;;;;;;5071065;28;20199;-57
2023/03/15 14:00:57;;;;;;;2.37;1.00;;;;;;;;;;5070712;28;20199;-55
2023/03/15 14:03:24;;;;;;;1.83;1.13;;;;;;;;;;5070737;28;20203;-56
2023/03/15 14:05:51;;;;;;;2.50;0.97;;;;;;;;;;5070807;28;20192;-55
2023/03/15 14:08:20;;;;;;;2.07;1.20;;;;;;;;;;5070602;28;20203;-56
2023/03/15 14:10:57;;;;;;;1.57;1.13;;;;;;;;;;5070550;28;20228;-56
2023/03/15 14:13:24;;;;;;;1.40;1.00;;;;;;;;;;5070740;28;20209;-56
2023/03/15 14:15:55;;;;;;;2.63;1.20;;;;;;;;;;5070576;28;20603;-56
2023/03/15 14:18:23;;;;;;;1.40;1.27;;;;;;;;;;5070466;28;20195;-56
2023/03/15 14:20:53;;;;;;;2.20;1.30;;;;;;;;;;5070533;28;20219;-57
2023/03/15 14:23:22;;;;;;;1.27;0.90;;;;;;;;;;5070587;28;20249;-55
2023/03/15 14:25:50;;;;;;;1.90;1.10;;;;;;;;;;5070614;28;20230;-56
2023/03/15 14:28:17;;;;;;;3.03;1.10;;;;;;;;;;5070462;28;20261;-55
2023/03/15 14:30:50;;;;;;;2.77;0.90;;;;;;;;;;5070338;28;20220;-56
2023/03/15 14:33:26;;;;;;;1.70;1.20;;;;;;;;;;5070332;28;20504;-56
2023/03/15 14:35:54;;;;;;;2.27;1.10;;;;;;;;;;5073967;28;20199;-55
2023/03/15 14:38:21;;;;;;;3.07;1.30;;;;;;;;;;5074450;28;20290;-56
2023/03/15 14:40:48;;;;;;;2.27;1.13;;;;;;;;;;5074237;28;20196;-56
2023/03/15 14:43:14;;;;;;;2.97;2.30;;;;;;;;;;5073995;28;20228;-56
2023/03/15 14:45:41;;;;;;;5.80;2.13;;;;;;;;;;5074270;28;20326;-57